sensor_id;sensor_type;location;lat;lon;timestamp;temperature;humidity
32446;DHT22;18899;50.748;7.102;2024-02-26T00:02:14;8.60;99.90
32446;DHT22;18899;50.748;7.102;2024-02-26T00:04:40;8.50;99.90
32446;DHT22;18899;50.748;7.102;2024-02-26T00:07:05;8.40;99.90
32446;DHT22;18899;50.748;7.102;2024-02-26T00:09:32;8.50;99.90
32446;DHT22;18899;50.748;7.102;2024-02-26T00:12:01;8.50;99.90
32446;DHT22;18899;50.748;7.102;2024-02-26T00:14:26;8.40;99.90
32446;DHT22;18899;50.748;7.102;2024-02-26T00:16:52;8.40;99.90
32446;DHT22;18899;50.748;7.102;2024-02-26T00:19:17;8.30;99.90
32446;DHT22;18899;50.748;7.102;2024-02-26T00:21:43;8.30;99.90
32446;DHT22;18899;50.748;7.102;2024-02-26T00:24:08;8.40;99.90
32446;DHT22;18899;50.748;7.102;2024-02-26T00:26:34;8.60;99.90
32446;DHT22;18899;50.748;7.102;2024-02-26T00:28:59;8.70;99.90
32446;DHT22;18899;50.748;7.102;2024-02-26T00:31:25;8.70;99.90
32446;DHT22;18899;50.748;7.102;2024-02-26T00:33:50;8.70;99.90
32446;DHT22;18899;50.748;7.102;2024-02-26T00:36:16;8.70;99.90
32446;DHT22;18899;50.748;7.102;2024-02-26T00:38:41;8.70;99.90
32446;DHT22;18899;50.748;7.102;2024-02-26T00:41:10;8.70;99.90
32446;DHT22;18899;50.748;7.102;2024-02-26T00:43:35;8.60;99.90
32446;DHT22;18899;50.748;7.102;2024-02-26T00:46:03;8.60;99.90
32446;DHT22;18899;50.748;7.102;2024-02-26T00:48:29;8.50;99.90
32446;DHT22;18899;50.748;7.102;2024-02-26T00:50:54;8.40;99.90
32446;DHT22;18899;50.748;7.102;2024-02-26T00:53:20;8.30;99.90
32446;DHT22;18899;50.748;7.102;2024-02-26T00:55:45;8.30;99.90
32446;DHT22;18899;50.748;7.102;2024-02-26T00:58:11;8.10;99.90
32446;DHT22;18899;50.748;7.102;2024-02-26T01:00:36;8.00;99.90
32446;DHT22;18899;50.748;7.102;2024-02-26T01:03:02;8.10;99.90
32446;DHT22;18899;50.748;7.102;2024-02-26T01:05:29;7.90;99.90
32446;DHT22;18899;50.748;7.102;2024-02-26T01:07:54;7.90;99.90
32446;DHT22;18899;50.748;7.102;2024-02-26T01:10:20;7.80;99.90
32446;DHT22;18899;50.748;7.102;2024-02-26T01:12:45;7.80;99.90
32446;DHT22;18899;50.748;7.102;2024-02-26T01:15:11;7.80;99.90
32446;DHT22;18899;50.748;7.102;2024-02-26T01:17:36;7.90;99.90
32446;DHT22;18899;50.748;7.102;2024-02-26T01:20:02;7.80;99.90
32446;DHT22;18899;50.748;7.102;2024-02-26T01:22:28;7.70;99.90
32446;DHT22;18899;50.748;7.102;2024-02-26T01:24:53;7.60;99.90
32446;DHT22;18899;50.748;7.102;2024-02-26T01:27:19;7.60;99.90
32446;DHT22;18899;50.748;7.102;2024-02-26T01:29:45;7.50;99.90
32446;DHT22;18899;50.748;7.102;2024-02-26T01:32:10;7.60;99.90
32446;DHT22;18899;50.748;7.102;2024-02-26T01:34:36;7.60;99.90
32446;DHT22;18899;50.748;7.102;2024-02-26T01:37:02;7.70;99.90
32446;DHT22;18899;50.748;7.102;2024-02-26T01:39:28;7.80;99.90
32446;DHT22;18899;50.748;7.102;2024-02-26T01:41:55;7.90;99.90
32446;DHT22;18899;50.748;7.102;2024-02-26T01:44:21;7.90;99.90
32446;DHT22;18899;50.748;7.102;2024-02-26T01:46:48;7.70;99.90
32446;DHT22;18899;50.748;7.102;2024-02-26T01:49:14;7.80;99.90
32446;DHT22;18899;50.748;7.102;2024-02-26T01:51:41;7.80;99.90
32446;DHT22;18899;50.748;7.102;2024-02-26T01:54:09;7.80;99.90
32446;DHT22;18899;50.748;7.102;2024-02-26T01:56:36;7.80;99.90
32446;DHT22;18899;50.748;7.102;2024-02-26T01:59:03;7.70;99.90
32446;DHT22;18899;50.748;7.102;2024-02-26T02:01:30;7.70;99.90
32446;DHT22;18899;50.748;7.102;2024-02-26T02:03:58;7.70;99.90
32446;DHT22;18899;50.748;7.102;2024-02-26T02:06:23;7.60;99.90
32446;DHT22;18899;50.748;7.102;2024-02-26T02:08:49;7.60;99.90
32446;DHT22;18899;50.748;7.102;2024-02-26T02:11:15;7.60;99.90
32446;DHT22;18899;50.748;7.102;2024-02-26T02:13:41;7.50;99.90
32446;DHT22;18899;50.748;7.102;2024-02-26T02:16:07;7.50;99.90
32446;DHT22;18899;50.748;7.102;2024-02-26T02:18:33;7.50;99.90
32446;DHT22;18899;50.748;7.102;2024-02-26T02:21:00;7.50;99.90
32446;DHT22;18899;50.748;7.102;2024-02-26T02:23:26;7.50;99.90
32446;DHT22;18899;50.748;7.102;2024-02-26T02:25:52;7.50;99.90
32446;DHT22;18899;50.748;7.102;2024-02-26T02:28:19;7.40;99.90
32446;DHT22;18899;50.748;7.102;2024-02-26T02:30:44;7.50;99.90
32446;DHT22;18899;50.748;7.102;2024-02-26T02:33:10;7.50;99.90
32446;DHT22;18899;50.748;7.102;2024-02-26T02:35:37;7.50;99.90
32446;DHT22;18899;50.748;7.102;2024-02-26T02:38:03;7.40;99.90
32446;DHT22;18899;50.748;7.102;2024-02-26T02:40:28;7.50;99.90
32446;DHT22;18899;50.748;7.102;2024-02-26T02:42:54;7.50;99.90
32446;DHT22;18899;50.748;7.102;2024-02-26T02:45:20;7.50;99.90
32446;DHT22;18899;50.748;7.102;2024-02-26T02:47:45;7.40;99.90
32446;DHT22;18899;50.748;7.102;2024-02-26T02:50:11;7.30;99.90
32446;DHT22;18899;50.748;7.102;2024-02-26T02:52:36;7.30;99.90
32446;DHT22;18899;50.748;7.102;2024-02-26T02:55:02;7.30;99.90
32446;DHT22;18899;50.748;7.102;2024-02-26T02:57:28;7.20;99.90
32446;DHT22;18899;50.748;7.102;2024-02-26T02:59:53;7.10;99.90
32446;DHT22;18899;50.748;7.102;2024-02-26T03:02:19;7.10;99.90
32446;DHT22;18899;50.748;7.102;2024-02-26T03:04:44;7.20;99.90
32446;DHT22;18899;50.748;7.102;2024-02-26T03:07:10;7.10;99.90
32446;DHT22;18899;50.748;7.102;2024-02-26T03:09:35;7.00;99.90
32446;DHT22;18899;50.748;7.102;2024-02-26T03:12:01;7.30;99.90
32446;DHT22;18899;50.748;7.102;2024-02-26T03:14:26;7.50;99.90
32446;DHT22;18899;50.748;7.102;2024-02-26T03:16:55;7.50;99.90
32446;DHT22;18899;50.748;7.102;2024-02-26T03:19:21;7.40;99.90
32446;DHT22;18899;50.748;7.102;2024-02-26T03:21:47;7.60;99.90
32446;DHT22;18899;50.748;7.102;2024-02-26T03:24:12;7.50;99.90
32446;DHT22;18899;50.748;7.102;2024-02-26T03:26:38;7.30;99.90
32446;DHT22;18899;50.748;7.102;2024-02-26T03:29:04;7.20;99.90
32446;DHT22;18899;50.748;7.102;2024-02-26T03:31:30;7.30;99.90
32446;DHT22;18899;50.748;7.102;2024-02-26T03:33:56;7.30;99.90
32446;DHT22;18899;50.748;7.102;2024-02-26T03:36:21;7.40;99.90
32446;DHT22;18899;50.748;7.102;2024-02-26T03:38:47;7.40;99.90
32446;DHT22;18899;50.748;7.102;2024-02-26T03:41:13;7.40;99.90
32446;DHT22;18899;50.748;7.102;2024-02-26T03:43:38;7.40;99.90
32446;DHT22;18899;50.748;7.102;2024-02-26T03:46:07;7.30;99.90
32446;DHT22;18899;50.748;7.102;2024-02-26T03:48:32;7.10;99.90
32446;DHT22;18899;50.748;7.102;2024-02-26T03:50:58;7.00;99.90
32446;DHT22;18899;50.748;7.102;2024-02-26T03:53:23;7.00;99.90
32446;DHT22;18899;50.748;7.102;2024-02-26T03:55:49;6.90;99.90
32446;DHT22;18899;50.748;7.102;2024-02-26T03:58:17;6.80;99.90
32446;DHT22;18899;50.748;7.102;2024-02-26T04:00:42;6.80;99.90
32446;DHT22;18899;50.748;7.102;2024-02-26T04:03:08;6.80;99.90
32446;DHT22;18899;50.748;7.102;2024-02-26T04:05:34;6.70;99.90
32446;DHT22;18899;50.748;7.102;2024-02-26T04:07:59;6.80;99.90
32446;DHT22;18899;50.748;7.102;2024-02-26T04:10:25;7.00;99.90
32446;DHT22;18899;50.748;7.102;2024-02-26T04:12:50;7.00;99.90
32446;DHT22;18899;50.748;7.102;2024-02-26T04:15:16;6.90;99.90
32446;DHT22;18899;50.748;7.102;2024-02-26T04:17:42;6.90;99.90
32446;DHT22;18899;50.748;7.102;2024-02-26T04:20:08;6.80;99.90
32446;DHT22;18899;50.748;7.102;2024-02-26T04:22:33;6.80;99.90
32446;DHT22;18899;50.748;7.102;2024-02-26T04:24:59;6.80;99.90
32446;DHT22;18899;50.748;7.102;2024-02-26T04:27:24;6.90;99.90
32446;DHT22;18899;50.748;7.102;2024-02-26T04:29:50;7.00;99.90
32446;DHT22;18899;50.748;7.102;2024-02-26T04:32:15;7.20;99.90
32446;DHT22;18899;50.748;7.102;2024-02-26T04:34:41;7.20;99.90
32446;DHT22;18899;50.748;7.102;2024-02-26T04:37:07;7.10;99.90
32446;DHT22;18899;50.748;7.102;2024-02-26T04:39:32;7.20;99.90
32446;DHT22;18899;50.748;7.102;2024-02-26T04:41:58;7.20;99.90
32446;DHT22;18899;50.748;7.102;2024-02-26T04:44:23;7.20;99.90
32446;DHT22;18899;50.748;7.102;2024-02-26T04:46:49;7.20;99.90
32446;DHT22;18899;50.748;7.102;2024-02-26T04:49:15;7.20;99.90
32446;DHT22;18899;50.748;7.102;2024-02-26T04:51:40;7.20;99.90
32446;DHT22;18899;50.748;7.102;2024-02-26T04:54:06;7.20;99.90
32446;DHT22;18899;50.748;7.102;2024-02-26T04:56:31;7.10;99.90
32446;DHT22;18899;50.748;7.102;2024-02-26T04:58:56;7.10;99.90
32446;DHT22;18899;50.748;7.102;2024-02-26T05:01:22;7.10;99.90
32446;DHT22;18899;50.748;7.102;2024-02-26T05:03:47;7.10;99.90
32446;DHT22;18899;50.748;7.102;2024-02-26T05:06:14;7.00;99.90
32446;DHT22;18899;50.748;7.102;2024-02-26T05:08:40;7.00;99.90
32446;DHT22;18899;50.748;7.102;2024-02-26T05:11:05;7.00;99.90
32446;DHT22;18899;50.748;7.102;2024-02-26T05:13:31;7.00;99.90
32446;DHT22;18899;50.748;7.102;2024-02-26T05:15:57;7.00;99.90
32446;DHT22;18899;50.748;7.102;2024-02-26T05:18:23;7.00;99.90
32446;DHT22;18899;50.748;7.102;2024-02-26T05:20:49;7.00;99.90
32446;DHT22;18899;50.748;7.102;2024-02-26T05:23:15;7.00;99.90
32446;DHT22;18899;50.748;7.102;2024-02-26T05:25:40;7.00;99.90
32446;DHT22;18899;50.748;7.102;2024-02-26T05:28:06;6.90;99.90
32446;DHT22;18899;50.748;7.102;2024-02-26T05:30:32;6.90;99.90
32446;DHT22;18899;50.748;7.102;2024-02-26T05:32:57;6.90;99.90
32446;DHT22;18899;50.748;7.102;2024-02-26T05:35:23;6.90;99.90
32446;DHT22;18899;50.748;7.102;2024-02-26T05:37:48;6.90;99.90
32446;DHT22;18899;50.748;7.102;2024-02-26T05:40:14;6.80;99.90
32446;DHT22;18899;50.748;7.102;2024-02-26T05:42:39;6.80;99.90
32446;DHT22;18899;50.748;7.102;2024-02-26T05:45:06;6.80;99.90
32446;DHT22;18899;50.748;7.102;2024-02-26T05:47:33;6.90;99.90
32446;DHT22;18899;50.748;7.102;2024-02-26T05:49:58;6.80;99.90
32446;DHT22;18899;50.748;7.102;2024-02-26T05:52:26;6.80;99.90
32446;DHT22;18899;50.748;7.102;2024-02-26T05:54:51;6.90;99.90
32446;DHT22;18899;50.748;7.102;2024-02-26T05:57:17;6.90;99.90
32446;DHT22;18899;50.748;7.102;2024-02-26T05:59:43;6.80;99.90
32446;DHT22;18899;50.748;7.102;2024-02-26T06:02:09;6.90;99.90
32446;DHT22;18899;50.748;7.102;2024-02-26T06:04:34;6.80;99.90
32446;DHT22;18899;50.748;7.102;2024-02-26T06:07:00;6.90;99.90
32446;DHT22;18899;50.748;7.102;2024-02-26T06:09:25;6.80;99.90
32446;DHT22;18899;50.748;7.102;2024-02-26T06:11:51;6.90;99.90
32446;DHT22;18899;50.748;7.102;2024-02-26T06:14:17;6.80;99.90
32446;DHT22;18899;50.748;7.102;2024-02-26T06:16:43;6.90;99.90
32446;DHT22;18899;50.748;7.102;2024-02-26T06:19:09;6.80;99.90
32446;DHT22;18899;50.748;7.102;2024-02-26T06:21:34;6.90;99.90
32446;DHT22;18899;50.748;7.102;2024-02-26T06:24:01;6.80;99.90
32446;DHT22;18899;50.748;7.102;2024-02-26T06:26:26;6.80;99.90
32446;DHT22;18899;50.748;7.102;2024-02-26T06:28:54;6.60;99.90
32446;DHT22;18899;50.748;7.102;2024-02-26T06:31:21;6.80;99.90
32446;DHT22;18899;50.748;7.102;2024-02-26T06:33:48;6.80;99.90
32446;DHT22;18899;50.748;7.102;2024-02-26T06:36:13;6.80;99.90
32446;DHT22;18899;50.748;7.102;2024-02-26T06:38:39;6.90;99.90
32446;DHT22;18899;50.748;7.102;2024-02-26T06:41:05;6.90;99.90
32446;DHT22;18899;50.748;7.102;2024-02-26T06:43:30;7.00;99.90
32446;DHT22;18899;50.748;7.102;2024-02-26T06:45:56;6.80;99.90
32446;DHT22;18899;50.748;7.102;2024-02-26T06:48:23;6.80;99.90
32446;DHT22;18899;50.748;7.102;2024-02-26T06:50:49;6.90;99.90
32446;DHT22;18899;50.748;7.102;2024-02-26T06:53:14;6.80;99.90
32446;DHT22;18899;50.748;7.102;2024-02-26T06:55:40;6.80;99.90
32446;DHT22;18899;50.748;7.102;2024-02-26T06:58:06;6.80;99.90
32446;DHT22;18899;50.748;7.102;2024-02-26T07:00:31;7.00;99.90
32446;DHT22;18899;50.748;7.102;2024-02-26T07:02:57;6.90;99.90
32446;DHT22;18899;50.748;7.102;2024-02-26T07:05:23;6.80;99.90
32446;DHT22;18899;50.748;7.102;2024-02-26T07:07:49;6.80;99.90
32446;DHT22;18899;50.748;7.102;2024-02-26T07:10:14;6.80;99.90
32446;DHT22;18899;50.748;7.102;2024-02-26T07:12:40;6.80;99.90
32446;DHT22;18899;50.748;7.102;2024-02-26T07:15:06;6.70;99.90
32446;DHT22;18899;50.748;7.102;2024-02-26T07:17:33;6.70;99.90
32446;DHT22;18899;50.748;7.102;2024-02-26T07:19:59;6.70;99.90
32446;DHT22;18899;50.748;7.102;2024-02-26T07:22:25;7.00;99.90
32446;DHT22;18899;50.748;7.102;2024-02-26T07:24:50;7.10;99.90
32446;DHT22;18899;50.748;7.102;2024-02-26T07:27:17;7.10;99.90
32446;DHT22;18899;50.748;7.102;2024-02-26T07:29:43;7.00;99.90
32446;DHT22;18899;50.748;7.102;2024-02-26T07:32:09;6.90;99.90
32446;DHT22;18899;50.748;7.102;2024-02-26T07:34:36;7.00;99.90
32446;DHT22;18899;50.748;7.102;2024-02-26T07:37:03;6.80;99.90
32446;DHT22;18899;50.748;7.102;2024-02-26T07:39:28;7.00;99.90
32446;DHT22;18899;50.748;7.102;2024-02-26T07:41:54;7.10;99.90
32446;DHT22;18899;50.748;7.102;2024-02-26T07:44:19;7.00;99.90
32446;DHT22;18899;50.748;7.102;2024-02-26T07:46:45;6.80;99.90
32446;DHT22;18899;50.748;7.102;2024-02-26T07:49:10;6.80;99.90
32446;DHT22;18899;50.748;7.102;2024-02-26T07:51:36;6.90;99.90
32446;DHT22;18899;50.748;7.102;2024-02-26T07:54:02;6.80;99.90
32446;DHT22;18899;50.748;7.102;2024-02-26T07:56:27;6.80;99.90
32446;DHT22;18899;50.748;7.102;2024-02-26T07:58:53;6.70;99.90
32446;DHT22;18899;50.748;7.102;2024-02-26T08:01:18;6.90;99.90
32446;DHT22;18899;50.748;7.102;2024-02-26T08:03:44;6.80;99.90
32446;DHT22;18899;50.748;7.102;2024-02-26T08:06:09;7.00;99.90
32446;DHT22;18899;50.748;7.102;2024-02-26T08:08:35;7.00;99.90
32446;DHT22;18899;50.748;7.102;2024-02-26T08:11:00;7.10;99.90
32446;DHT22;18899;50.748;7.102;2024-02-26T08:13:26;7.10;99.90
32446;DHT22;18899;50.748;7.102;2024-02-26T08:15:51;7.20;99.90
32446;DHT22;18899;50.748;7.102;2024-02-26T08:18:17;7.10;99.90
32446;DHT22;18899;50.748;7.102;2024-02-26T08:20:43;7.00;99.90
32446;DHT22;18899;50.748;7.102;2024-02-26T08:23:09;7.10;99.90
32446;DHT22;18899;50.748;7.102;2024-02-26T08:25:34;7.00;99.90
32446;DHT22;18899;50.748;7.102;2024-02-26T08:28:00;7.00;99.90
32446;DHT22;18899;50.748;7.102;2024-02-26T08:30:25;7.00;99.90
32446;DHT22;18899;50.748;7.102;2024-02-26T08:32:51;6.80;99.90
32446;DHT22;18899;50.748;7.102;2024-02-26T08:35:18;6.70;99.90
32446;DHT22;18899;50.748;7.102;2024-02-26T08:37:47;6.70;99.90
32446;DHT22;18899;50.748;7.102;2024-02-26T08:40:13;6.80;99.90
32446;DHT22;18899;50.748;7.102;2024-02-26T08:42:39;6.90;99.90
32446;DHT22;18899;50.748;7.102;2024-02-26T08:45:05;6.70;99.90
32446;DHT22;18899;50.748;7.102;2024-02-26T08:47:31;6.70;99.90
32446;DHT22;18899;50.748;7.102;2024-02-26T08:49:56;7.00;99.90
32446;DHT22;18899;50.748;7.102;2024-02-26T08:52:22;7.00;99.90
32446;DHT22;18899;50.748;7.102;2024-02-26T08:54:48;6.90;99.90
32446;DHT22;18899;50.748;7.102;2024-02-26T08:57:14;6.90;99.90
32446;DHT22;18899;50.748;7.102;2024-02-26T08:59:40;6.90;99.90
32446;DHT22;18899;50.748;7.102;2024-02-26T09:02:05;6.70;99.90
32446;DHT22;18899;50.748;7.102;2024-02-26T09:04:31;6.90;99.90
32446;DHT22;18899;50.748;7.102;2024-02-26T09:06:56;6.90;99.90
32446;DHT22;18899;50.748;7.102;2024-02-26T09:09:22;7.00;99.90
32446;DHT22;18899;50.748;7.102;2024-02-26T09:11:48;6.90;99.90
32446;DHT22;18899;50.748;7.102;2024-02-26T09:14:16;7.00;99.90
32446;DHT22;18899;50.748;7.102;2024-02-26T09:16:42;7.00;99.90
32446;DHT22;18899;50.748;7.102;2024-02-26T09:19:07;7.00;99.90
32446;DHT22;18899;50.748;7.102;2024-02-26T09:21:33;7.00;99.90
32446;DHT22;18899;50.748;7.102;2024-02-26T09:23:59;7.00;99.90
32446;DHT22;18899;50.748;7.102;2024-02-26T09:26:24;7.10;99.90
32446;DHT22;18899;50.748;7.102;2024-02-26T09:28:49;7.10;99.90
32446;DHT22;18899;50.748;7.102;2024-02-26T09:31:15;6.90;99.90
32446;DHT22;18899;50.748;7.102;2024-02-26T09:33:43;7.10;99.90
32446;DHT22;18899;50.748;7.102;2024-02-26T09:36:08;7.00;99.90
32446;DHT22;18899;50.748;7.102;2024-02-26T09:38:36;7.00;99.90
32446;DHT22;18899;50.748;7.102;2024-02-26T09:41:06;7.00;99.90
32446;DHT22;18899;50.748;7.102;2024-02-26T09:43:35;6.90;99.90
32446;DHT22;18899;50.748;7.102;2024-02-26T09:46:05;7.00;99.90
32446;DHT22;18899;50.748;7.102;2024-02-26T09:48:32;7.10;99.90
32446;DHT22;18899;50.748;7.102;2024-02-26T09:51:00;6.90;99.90
32446;DHT22;18899;50.748;7.102;2024-02-26T09:53:29;6.90;99.90
32446;DHT22;18899;50.748;7.102;2024-02-26T09:55:57;6.90;99.90
32446;DHT22;18899;50.748;7.102;2024-02-26T09:58:23;7.00;99.90
32446;DHT22;18899;50.748;7.102;2024-02-26T10:00:53;7.00;99.90
32446;DHT22;18899;50.748;7.102;2024-02-26T10:03:21;7.10;99.90
32446;DHT22;18899;50.748;7.102;2024-02-26T10:05:48;7.10;99.90
32446;DHT22;18899;50.748;7.102;2024-02-26T10:08:14;7.20;99.90
32446;DHT22;18899;50.748;7.102;2024-02-26T10:10:40;7.10;99.90
32446;DHT22;18899;50.748;7.102;2024-02-26T10:13:07;7.20;99.90
32446;DHT22;18899;50.748;7.102;2024-02-26T10:15:36;7.30;99.90
32446;DHT22;18899;50.748;7.102;2024-02-26T10:18:04;7.30;99.90
32446;DHT22;18899;50.748;7.102;2024-02-26T10:20:31;7.30;99.90
32446;DHT22;18899;50.748;7.102;2024-02-26T10:22:57;7.60;99.90
32446;DHT22;18899;50.748;7.102;2024-02-26T10:25:23;7.70;99.90
32446;DHT22;18899;50.748;7.102;2024-02-26T10:27:49;7.80;99.90
32446;DHT22;18899;50.748;7.102;2024-02-26T10:30:21;7.90;99.90
32446;DHT22;18899;50.748;7.102;2024-02-26T10:32:48;8.00;99.90
32446;DHT22;18899;50.748;7.102;2024-02-26T10:35:15;8.00;99.90
32446;DHT22;18899;50.748;7.102;2024-02-26T10:37:41;8.20;99.90
32446;DHT22;18899;50.748;7.102;2024-02-26T10:40:16;8.30;99.90
32446;DHT22;18899;50.748;7.102;2024-02-26T10:42:43;8.50;99.90
32446;DHT22;18899;50.748;7.102;2024-02-26T10:45:10;8.30;99.90
32446;DHT22;18899;50.748;7.102;2024-02-26T10:47:36;8.30;99.90
32446;DHT22;18899;50.748;7.102;2024-02-26T10:50:04;8.30;99.90
32446;DHT22;18899;50.748;7.102;2024-02-26T10:52:34;8.30;99.90
32446;DHT22;18899;50.748;7.102;2024-02-26T10:55:01;8.40;99.90
32446;DHT22;18899;50.748;7.102;2024-02-26T10:57:33;8.40;99.90
32446;DHT22;18899;50.748;7.102;2024-02-26T11:00:00;8.40;99.90
32446;DHT22;18899;50.748;7.102;2024-02-26T11:02:26;8.50;99.90
32446;DHT22;18899;50.748;7.102;2024-02-26T11:04:53;8.60;99.90
32446;DHT22;18899;50.748;7.102;2024-02-26T11:07:19;8.70;99.90
32446;DHT22;18899;50.748;7.102;2024-02-26T11:09:46;8.60;99.90
32446;DHT22;18899;50.748;7.102;2024-02-26T11:12:18;8.50;99.90
32446;DHT22;18899;50.748;7.102;2024-02-26T11:14:46;8.50;99.90
32446;DHT22;18899;50.748;7.102;2024-02-26T11:17:13;8.50;99.90
32446;DHT22;18899;50.748;7.102;2024-02-26T11:19:41;8.60;99.90
32446;DHT22;18899;50.748;7.102;2024-02-26T11:22:08;8.40;99.90
32446;DHT22;18899;50.748;7.102;2024-02-26T11:24:33;8.40;99.90
32446;DHT22;18899;50.748;7.102;2024-02-26T11:27:03;8.50;99.90
32446;DHT22;18899;50.748;7.102;2024-02-26T11:29:38;8.50;99.90
32446;DHT22;18899;50.748;7.102;2024-02-26T11:32:05;8.40;99.90
32446;DHT22;18899;50.748;7.102;2024-02-26T11:34:31;8.40;99.90
32446;DHT22;18899;50.748;7.102;2024-02-26T11:36:57;8.40;99.90
32446;DHT22;18899;50.748;7.102;2024-02-26T11:39:23;8.40;99.90
32446;DHT22;18899;50.748;7.102;2024-02-26T11:41:50;8.30;99.90
32446;DHT22;18899;50.748;7.102;2024-02-26T11:44:28;8.20;99.90
32446;DHT22;18899;50.748;7.102;2024-02-26T11:46:56;8.30;99.90
32446;DHT22;18899;50.748;7.102;2024-02-26T11:51:54;8.20;99.90
32446;DHT22;18899;50.748;7.102;2024-02-26T11:54:40;8.30;99.90
32446;DHT22;18899;50.748;7.102;2024-02-26T11:57:38;8.30;99.90
32446;DHT22;18899;50.748;7.102;2024-02-26T12:02:44;8.40;99.90
32446;DHT22;18899;50.748;7.102;2024-02-26T12:05:21;8.40;99.90
32446;DHT22;18899;50.748;7.102;2024-02-26T12:10:31;8.40;99.90
32446;DHT22;18899;50.748;7.102;2024-02-26T12:13:08;8.50;99.90
32446;DHT22;18899;50.748;7.102;2024-02-26T12:15:38;8.50;99.90
32446;DHT22;18899;50.748;7.102;2024-02-26T12:18:06;8.50;99.90
32446;DHT22;18899;50.748;7.102;2024-02-26T12:20:33;8.60;99.90
32446;DHT22;18899;50.748;7.102;2024-02-26T12:22:59;8.60;99.90
32446;DHT22;18899;50.748;7.102;2024-02-26T12:25:26;8.70;99.90
32446;DHT22;18899;50.748;7.102;2024-02-26T12:27:55;8.70;99.90
32446;DHT22;18899;50.748;7.102;2024-02-26T12:30:24;8.70;99.90
32446;DHT22;18899;50.748;7.102;2024-02-26T12:32:56;8.70;99.90
32446;DHT22;18899;50.748;7.102;2024-02-26T12:35:23;8.70;99.90
32446;DHT22;18899;50.748;7.102;2024-02-26T12:37:49;8.60;99.90
32446;DHT22;18899;50.748;7.102;2024-02-26T12:40:16;8.70;99.90
32446;DHT22;18899;50.748;7.102;2024-02-26T12:42:42;8.70;99.90
32446;DHT22;18899;50.748;7.102;2024-02-26T12:45:10;8.70;99.90
32446;DHT22;18899;50.748;7.102;2024-02-26T12:47:40;8.70;99.90
32446;DHT22;18899;50.748;7.102;2024-02-26T12:50:06;8.70;99.90
32446;DHT22;18899;50.748;7.102;2024-02-26T12:52:33;8.70;99.90
32446;DHT22;18899;50.748;7.102;2024-02-26T12:55:01;8.70;99.90
32446;DHT22;18899;50.748;7.102;2024-02-26T12:57:27;8.60;99.90
32446;DHT22;18899;50.748;7.102;2024-02-26T12:59:54;8.60;99.90
32446;DHT22;18899;50.748;7.102;2024-02-26T13:02:20;8.60;99.90
32446;DHT22;18899;50.748;7.102;2024-02-26T13:04:45;8.60;99.90
32446;DHT22;18899;50.748;7.102;2024-02-26T13:07:11;8.60;99.90
32446;DHT22;18899;50.748;7.102;2024-02-26T13:09:37;8.60;99.90
32446;DHT22;18899;50.748;7.102;2024-02-26T13:12:07;8.70;99.90
32446;DHT22;18899;50.748;7.102;2024-02-26T13:14:32;8.70;99.90
32446;DHT22;18899;50.748;7.102;2024-02-26T13:16:59;8.70;99.90
32446;DHT22;18899;50.748;7.102;2024-02-26T13:19:25;8.70;99.90
32446;DHT22;18899;50.748;7.102;2024-02-26T13:21:51;8.70;99.90
32446;DHT22;18899;50.748;7.102;2024-02-26T13:24:17;8.70;99.90
32446;DHT22;18899;50.748;7.102;2024-02-26T13:26:45;8.80;99.90
32446;DHT22;18899;50.748;7.102;2024-02-26T13:29:19;8.70;99.90
32446;DHT22;18899;50.748;7.102;2024-02-26T13:31:45;8.80;99.90
32446;DHT22;18899;50.748;7.102;2024-02-26T13:34:22;8.80;99.90
32446;DHT22;18899;50.748;7.102;2024-02-26T13:36:48;8.70;99.90
32446;DHT22;18899;50.748;7.102;2024-02-26T13:39:24;8.80;99.90
32446;DHT22;18899;50.748;7.102;2024-02-26T13:41:51;8.70;99.90
32446;DHT22;18899;50.748;7.102;2024-02-26T13:44:18;8.70;99.90
32446;DHT22;18899;50.748;7.102;2024-02-26T13:46:44;8.70;99.90
32446;DHT22;18899;50.748;7.102;2024-02-26T13:49:10;8.70;99.90
32446;DHT22;18899;50.748;7.102;2024-02-26T13:51:37;8.70;99.90
32446;DHT22;18899;50.748;7.102;2024-02-26T13:54:03;8.70;99.90
32446;DHT22;18899;50.748;7.102;2024-02-26T13:56:29;8.70;99.90
32446;DHT22;18899;50.748;7.102;2024-02-26T13:58:54;8.70;99.90
32446;DHT22;18899;50.748;7.102;2024-02-26T14:01:20;8.70;99.90
32446;DHT22;18899;50.748;7.102;2024-02-26T14:03:45;8.70;99.90
32446;DHT22;18899;50.748;7.102;2024-02-26T14:06:11;8.70;99.90
32446;DHT22;18899;50.748;7.102;2024-02-26T14:08:36;8.60;99.90
32446;DHT22;18899;50.748;7.102;2024-02-26T14:11:02;8.60;99.90
32446;DHT22;18899;50.748;7.102;2024-02-26T14:13:28;8.60;99.90
32446;DHT22;18899;50.748;7.102;2024-02-26T14:15:54;8.50;99.90
32446;DHT22;18899;50.748;7.102;2024-02-26T14:18:19;8.60;99.90
32446;DHT22;18899;50.748;7.102;2024-02-26T14:20:45;8.60;99.90
32446;DHT22;18899;50.748;7.102;2024-02-26T14:23:10;8.60;99.90
32446;DHT22;18899;50.748;7.102;2024-02-26T14:25:36;8.60;99.90
32446;DHT22;18899;50.748;7.102;2024-02-26T14:28:02;8.60;99.90
32446;DHT22;18899;50.748;7.102;2024-02-26T14:30:28;8.60;99.90
32446;DHT22;18899;50.748;7.102;2024-02-26T14:32:53;8.60;99.90
32446;DHT22;18899;50.748;7.102;2024-02-26T14:35:19;8.70;99.90
32446;DHT22;18899;50.748;7.102;2024-02-26T14:37:45;8.70;99.90
32446;DHT22;18899;50.748;7.102;2024-02-26T14:40:15;8.70;99.90
32446;DHT22;18899;50.748;7.102;2024-02-26T14:42:41;8.70;99.90
32446;DHT22;18899;50.748;7.102;2024-02-26T14:45:07;8.80;99.90
32446;DHT22;18899;50.748;7.102;2024-02-26T14:47:37;8.80;99.90
32446;DHT22;18899;50.748;7.102;2024-02-26T14:50:04;8.80;99.90
32446;DHT22;18899;50.748;7.102;2024-02-26T14:52:29;8.80;99.90
32446;DHT22;18899;50.748;7.102;2024-02-26T14:54:55;8.90;99.90
32446;DHT22;18899;50.748;7.102;2024-02-26T14:57:20;8.80;99.90
32446;DHT22;18899;50.748;7.102;2024-02-26T14:59:46;8.90;99.90
32446;DHT22;18899;50.748;7.102;2024-02-26T15:02:14;8.90;99.90
32446;DHT22;18899;50.748;7.102;2024-02-26T15:04:39;9.00;99.90
32446;DHT22;18899;50.748;7.102;2024-02-26T15:07:05;9.00;99.90
32446;DHT22;18899;50.748;7.102;2024-02-26T15:09:30;9.00;99.90
32446;DHT22;18899;50.748;7.102;2024-02-26T15:11:56;9.00;99.90
32446;DHT22;18899;50.748;7.102;2024-02-26T15:14:23;9.00;99.90
32446;DHT22;18899;50.748;7.102;2024-02-26T15:16:48;9.10;99.90
32446;DHT22;18899;50.748;7.102;2024-02-26T15:19:14;9.10;99.90
32446;DHT22;18899;50.748;7.102;2024-02-26T15:21:46;9.10;99.90
32446;DHT22;18899;50.748;7.102;2024-02-26T15:24:11;9.10;99.90
32446;DHT22;18899;50.748;7.102;2024-02-26T15:26:38;9.10;99.90
32446;DHT22;18899;50.748;7.102;2024-02-26T15:29:05;9.10;99.90
32446;DHT22;18899;50.748;7.102;2024-02-26T15:31:31;9.10;99.90
32446;DHT22;18899;50.748;7.102;2024-02-26T15:33:57;9.20;99.90
32446;DHT22;18899;50.748;7.102;2024-02-26T15:36:22;9.10;99.90
32446;DHT22;18899;50.748;7.102;2024-02-26T15:38:48;9.20;99.90
32446;DHT22;18899;50.748;7.102;2024-02-26T15:41:14;9.20;99.90
32446;DHT22;18899;50.748;7.102;2024-02-26T15:43:39;9.30;99.90
32446;DHT22;18899;50.748;7.102;2024-02-26T15:46:05;9.40;99.90
32446;DHT22;18899;50.748;7.102;2024-02-26T15:48:31;9.40;99.90